Time;durP1;ratioP1;P1;durP2;ratioP2;P2;SDS_P1;SDS_P2;PMS_P1;PMS_P2;Temp;Humidity;BMP_temperature;BMP_pressure;BME280_temperature;BME280_humidity;BME280_pressure;Samples;Min_cycle;Max_cycle;Signal;HPM_P1;HPM_P2
2021/12/11 00:01:20;;;;;;;29.93;15.77;;;;;;;-2.07;76.77;99278.31;8773238;33;20178;-70
2021/12/11 00:06:28;;;;;;;31.47;16.60;;;;;;;-1.95;76.88;99284.75;8773710;33;20170;-71
2021/12/11 00:11:36;;;;;;;25.43;16.43;;;;;;;-1.95;76.69;99294.44;8772945;33;20701;-71
2021/12/11 00:16:40;;;;;;;32.33;18.80;;;;;;;-1.93;76.91;99311.03;8773645;33;20197;-71
2021/12/11 00:21:44;;;;;;;38.37;22.60;;;;;;;-1.87;77.24;99316.84;8773830;33;20237;-70
2021/12/11 00:26:56;;;;;;;32.07;19.23;;;;;;;-1.93;77.01;99335.56;8773697;33;20194;-70
2021/12/11 00:32:04;;;;;;;35.17;19.03;;;;;;;-2.12;77.46;99343.44;8752520;33;20190;-70
2021/12/11 00:37:10;;;;;;;23.90;13.63;;;;;;;-2.48;77.92;99342.47;8778535;33;20182;-71
2021/12/11 00:42:15;;;;;;;28.93;16.50;;;;;;;-2.73;78.03;99343.53;8778431;33;20163;-71
2021/12/11 00:47:23;;;;;;;29.43;18.70;;;;;;;-2.65;78.52;99361.63;8778025;33;20191;-70
2021/12/11 00:52:36;;;;;;;29.37;18.67;;;;;;;-2.65;78.27;99362.47;8777812;33;20189;-70
2021/12/11 00:57:41;;;;;;;32.90;20.30;;;;;;;-2.51;78.32;99369.75;8778062;33;21212;-71
2021/12/11 01:02:46;;;;;;;32.03;19.60;;;;;;;-2.47;77.94;99379.22;8777342;33;20655;-71
2021/12/11 01:07:50;;;;;;;34.43;20.37;;;;;;;-2.61;78.03;99392.09;8777451;33;20196;-70
2021/12/11 01:13:03;;;;;;;33.43;20.87;;;;;;;-2.51;78.12;99399.53;8777189;33;21055;-70
2021/12/11 01:18:22;;;;;;;35.63;21.60;;;;;;;-2.48;77.84;99421.38;8777722;33;20648;-71
2021/12/11 01:23:45;;;;;;;33.97;21.50;;;;;;;-2.61;77.54;99429.75;8777395;33;21898;-71
2021/12/11 01:28:51;;;;;;;37.37;21.93;;;;;;;-2.66;77.38;99431.75;8777332;33;20248;-70
2021/12/11 01:33:56;;;;;;;36.40;22.47;;;;;;;-2.66;77.43;99449.28;8777339;33;20187;-70
2021/12/11 01:39:04;;;;;;;34.33;21.37;;;;;;;-2.64;77.27;99448.28;8777877;33;20282;-70
2021/12/11 01:44:15;;;;;;;36.40;21.50;;;;;;;-2.70;77.36;99466.97;8659571;33;20433;-70
2021/12/11 01:49:22;;;;;;;35.50;18.77;;;;;;;-2.82;77.87;99472.72;8622047;33;20986;-70
2021/12/11 01:54:31;;;;;;;30.07;20.53;;;;;;;-2.87;77.67;99485.19;8621487;33;20505;-70
2021/12/11 01:59:39;;;;;;;40.43;20.70;;;;;;;-3.03;77.15;99487.56;8619881;33;20454;-70
2021/12/11 02:04:47;;;;;;;33.67;19.93;;;;;;;-3.03;76.90;99495.47;8600586;33;20542;-70
2021/12/11 02:09:56;;;;;;;30.03;19.60;;;;;;;-3.04;77.04;99499.88;8628579;33;20415;-70
2021/12/11 02:15:03;;;;;;;31.90;19.00;;;;;;;-3.13;76.53;99504.59;8627583;33;20411;-70
2021/12/11 02:20:10;;;;;;;32.70;19.87;;;;;;;-3.25;76.40;99524.31;8620073;33;20668;-70
2021/12/11 02:25:19;;;;;;;36.10;20.00;;;;;;;-3.23;76.53;99538.28;8608779;33;20418;-70
2021/12/11 02:30:31;;;;;;;36.43;20.77;;;;;;;-3.24;76.52;99545.28;8595816;33;20456;-70
2021/12/11 02:35:41;;;;;;;36.27;19.83;;;;;;;-3.09;76.77;99562.25;8604039;33;21004;-71
2021/12/11 02:40:51;;;;;;;36.13;20.00;;;;;;;-2.96;76.21;99570.53;8604208;33;20190;-70
2021/12/11 02:46:00;;;;;;;35.10;20.23;;;;;;;-2.92;76.43;99585.25;8605861;33;21049;-70
2021/12/11 02:51:14;;;;;;;34.77;20.30;;;;;;;-2.75;76.62;99592.47;8575405;33;21119;-70
2021/12/11 02:56:30;;;;;;;38.50;21.23;;;;;;;-2.41;76.50;99607.78;8602748;33;20430;-72
2021/12/11 03:01:39;;;;;;;33.87;20.30;;;;;;;-2.38;75.89;99623.44;8603352;33;21776;-70
2021/12/11 03:06:46;;;;;;;35.77;21.20;;;;;;;-2.36;77.04;99619.00;8602843;33;20991;-70
2021/12/11 03:11:53;;;;;;;26.23;18.13;;;;;;;-2.67;77.31;99636.88;8601769;33;20143;-70
2021/12/11 03:16:58;;;;;;;33.23;18.77;;;;;;;-2.75;77.30;99634.53;8603399;33;20495;-70
2021/12/11 03:22:10;;;;;;;33.37;19.73;;;;;;;-2.74;77.73;99645.00;8602363;33;20826;-70
2021/12/11 03:27:15;;;;;;;34.93;17.23;;;;;;;-2.63;77.96;99647.22;8602614;33;20286;-70
2021/12/11 03:32:22;;;;;;;36.53;19.37;;;;;;;-2.60;77.94;99648.88;8601542;33;20692;-71
2021/12/11 03:37:25;;;;;;;31.63;19.13;;;;;;;-2.49;77.97;99649.31;8577868;33;20152;-70
2021/12/11 03:42:34;;;;;;;34.90;19.07;;;;;;;-2.43;78.10;99659.59;8602927;33;20199;-71
2021/12/11 03:47:43;;;;;;;31.40;18.93;;;;;;;-2.29;78.21;99666.94;8603366;33;20497;-70
2021/12/11 03:52:49;;;;;;;33.70;19.77;;;;;;;-2.15;77.98;99667.25;8604171;33;20260;-70
2021/12/11 03:57:59;;;;;;;30.27;19.43;;;;;;;-2.22;77.40;99678.97;8584948;33;20159;-70
2021/12/11 04:03:06;;;;;;;34.60;20.70;;;;;;;-2.22;77.68;99680.69;8589912;33;20462;-70
2021/12/11 04:08:13;;;;;;;35.10;20.13;;;;;;;-2.15;77.67;99697.97;8600547;33;20182;-71
2021/12/11 04:13:18;;;;;;;35.20;20.50;;;;;;;-2.11;77.59;99700.44;8599259;33;20521;-70
2021/12/11 04:18:22;;;;;;;30.73;18.63;;;;;;;-2.04;77.67;99723.88;8602297;33;20479;-70
2021/12/11 04:23:25;;;;;;;34.20;19.13;;;;;;;-1.97;77.49;99720.94;8600637;33;20159;-70
2021/12/11 04:28:35;;;;;;;31.93;18.40;;;;;;;-2.00;77.46;99720.19;8600001;33;20429;-70
2021/12/11 04:33:41;;;;;;;34.53;18.93;;;;;;;-2.07;77.42;99736.22;8600001;33;20250;-70
2021/12/11 04:38:46;;;;;;;35.07;19.33;;;;;;;-2.01;77.60;99735.13;8601109;33;20452;-71
2021/12/11 04:43:54;;;;;;;28.10;17.37;;;;;;;-1.94;77.90;99747.13;8601470;33;20428;-70
2021/12/11 04:49:10;;;;;;;31.23;18.30;;;;;;;-1.86;77.81;99768.75;8615055;33;21129;-70
2021/12/11 04:54:34;;;;;;;33.27;18.50;;;;;;;-1.80;77.32;99764.16;8614854;33;20234;-69
2021/12/11 04:59:54;;;;;;;33.87;18.70;;;;;;;-1.79;77.43;99787.78;8612457;33;20510;-71
2021/12/11 05:05:11;;;;;;;30.83;19.50;;;;;;;-1.76;77.52;99792.94;8602471;33;20470;-70
2021/12/11 05:10:23;;;;;;;31.37;18.87;;;;;;;-1.72;77.02;99798.94;8600910;33;20401;-70
2021/12/11 05:15:33;;;;;;;34.60;20.37;;;;;;;-1.71;77.41;99813.81;8601865;33;20199;-70
2021/12/11 05:20:37;;;;;;;34.47;20.57;;;;;;;-1.74;77.44;99827.97;8601585;33;20212;-69
2021/12/11 05:25:40;;;;;;;33.77;21.67;;;;;;;-1.69;77.14;99833.06;8601106;33;20675;-71
2021/12/11 05:30:50;;;;;;;32.53;20.07;;;;;;;-1.65;77.40;99843.41;8599327;33;20536;-71
2021/12/11 05:35:55;;;;;;;32.17;19.63;;;;;;;-1.61;77.52;99852.06;8600615;33;20410;-73
2021/12/11 05:41:02;;;;;;;31.50;20.63;;;;;;;-1.58;77.30;99857.19;8599994;33;20178;-71
2021/12/11 05:46:09;;;;;;;33.13;20.10;;;;;;;-1.54;77.36;99856.16;8604053;33;20272;-71
2021/12/11 05:51:18;;;;;;;34.07;19.60;;;;;;;-1.51;77.25;99863.06;8605078;33;20712;-71
2021/12/11 05:56:23;;;;;;;33.17;20.53;;;;;;;-1.48;77.48;99873.47;8604059;33;22269;-69
2021/12/11 06:01:34;;;;;;;33.20;18.67;;;;;;;-1.42;77.21;99881.16;8604731;33;20412;-70
2021/12/11 06:06:39;;;;;;;26.83;18.37;;;;;;;-1.42;77.28;99882.03;8605423;33;20200;-70
2021/12/11 06:11:45;;;;;;;36.40;20.23;;;;;;;-1.58;77.71;99895.84;8605064;33;20269;-71
2021/12/11 06:16:53;;;;;;;31.07;18.93;;;;;;;-1.56;77.47;99909.81;8605293;33;20624;-70
2021/12/11 06:21:59;;;;;;;32.23;18.57;;;;;;;-1.60;77.81;99919.59;8605954;33;21265;-69
2021/12/11 06:27:02;;;;;;;28.80;19.20;;;;;;;-1.65;78.29;99924.19;8604985;33;20585;-71
2021/12/11 06:32:08;;;;;;;32.33;19.17;;;;;;;-1.55;78.51;99932.63;8579629;33;20415;-72
2021/12/11 06:37:15;;;;;;;27.93;18.00;;;;;;;-1.64;78.33;99934.69;8600386;33;21884;-71
2021/12/11 06:42:20;;;;;;;25.83;17.00;;;;;;;-1.73;78.71;99937.63;8599671;33;21169;-72
2021/12/11 06:47:25;;;;;;;35.83;18.07;;;;;;;-1.85;79.16;99964.44;8595536;33;20214;-73
2021/12/11 06:52:28;;;;;;;30.87;18.87;;;;;;;-1.87;79.28;99988.19;8595415;33;20572;-71
2021/12/11 06:57:31;;;;;;;30.13;18.90;;;;;;;-1.85;79.10;99989.00;8598562;33;20295;-73
2021/12/11 07:02:36;;;;;;;31.87;17.67;;;;;;;-1.74;79.21;100011.44;8601726;33;20415;-72
2021/12/11 07:07:41;;;;;;;30.27;19.57;;;;;;;-1.69;79.36;100010.38;8600439;33;20171;-72
2021/12/11 07:12:47;;;;;;;41.30;25.40;;;;;;;-1.67;79.12;100024.34;8595868;33;20183;-72
2021/12/11 07:17:51;;;;;;;32.33;18.80;;;;;;;-1.63;78.90;100033.84;8593021;33;20127;-73
2021/12/11 07:22:54;;;;;;;30.57;19.13;;;;;;;-1.59;78.95;100044.25;8594743;33;20545;-72
2021/12/11 07:28:01;;;;;;;30.50;18.33;;;;;;;-1.71;78.49;100062.22;8595788;33;20428;-72
2021/12/11 07:33:07;;;;;;;31.57;18.67;;;;;;;-1.74;78.41;100074.66;8572781;33;20456;-72
2021/12/11 07:38:12;;;;;;;33.50;19.87;;;;;;;-1.70;78.89;100092.06;8596750;33;21107;-73
2021/12/11 07:43:16;;;;;;;34.73;20.00;;;;;;;-1.69;78.63;100105.19;8568640;33;20686;-72
2021/12/11 07:48:21;;;;;;;34.57;20.83;;;;;;;-1.64;78.39;100105.88;8594591;33;20536;-72
2021/12/11 07:53:25;;;;;;;36.40;20.73;;;;;;;-1.55;78.40;100117.00;8595079;33;22247;-72
2021/12/11 07:58:32;;;;;;;32.43;19.70;;;;;;;-1.58;78.37;100122.38;8595934;33;20516;-72
2021/12/11 08:03:38;;;;;;;30.67;19.33;;;;;;;-1.53;78.35;100128.38;8605456;33;20183;-74
2021/12/11 08:08:45;;;;;;;22.30;13.75;;;;;;;-1.64;78.22;100134.84;8648009;33;20462;-70
2021/12/11 08:13:51;;;;;;;36.20;20.47;;;;;;;-1.30;78.77;100152.09;8643985;33;20232;-71
2021/12/11 08:18:55;;;;;;;48.53;27.33;;;;;;;-0.92;78.27;100151.63;8615300;33;20171;-71
2021/12/11 08:24:04;;;;;;;29.60;17.43;;;;;;;-0.98;77.26;100152.72;8588834;33;20422;-70
2021/12/11 08:29:09;;;;;;;24.20;16.00;;;;;;;-0.63;76.74;100155.78;8594665;33;20453;-72
2021/12/11 08:34:14;;;;;;;24.27;14.85;;;;;;;-0.62;75.54;100161.03;8601423;33;20407;-71
2021/12/11 08:39:19;;;;;;;22.47;15.37;;;;;;;-0.47;75.14;100178.03;8602620;33;20408;-71
2021/12/11 08:44:24;;;;;;;23.15;16.23;;;;;;;-0.72;74.06;100181.59;8603980;33;22391;-71
2021/12/11 08:49:33;;;;;;;31.47;19.00;;;;;;;-1.09;75.26;100189.16;8605243;33;21306;-71
2021/12/11 08:54:37;;;;;;;26.92;17.70;;;;;;;-0.42;75.83;100196.34;8603481;33;20157;-72
2021/12/11 08:59:49;;;;;;;29.65;17.95;;;;;;;-0.17;74.18;100202.38;8601099;33;20404;-73
2021/12/11 09:05:00;;;;;;;27.83;16.77;;;;;;;0.24;72.00;100209.56;8600603;33;20432;-71
2021/12/11 09:10:11;;;;;;;24.98;15.43;;;;;;;0.54;70.58;100212.72;8599307;33;20502;-71
2021/12/11 09:15:23;;;;;;;25.20;16.00;;;;;;;0.30;70.94;100215.47;8575609;33;20354;-71
2021/12/11 09:20:37;;;;;;;30.55;16.45;;;;;;;0.37;70.34;100224.00;8602726;33;20205;-71
2021/12/11 09:25:47;;;;;;;27.63;17.55;;;;;;;0.47;71.13;100224.47;8607110;33;20193;-71
2021/12/11 09:30:56;;;;;;;31.77;18.60;;;;;;;0.65;70.11;100238.69;8605734;33;20226;-71
2021/12/11 09:36:10;;;;;;;31.13;16.45;;;;;;;0.93;69.81;100247.16;8605294;33;22498;-72
2021/12/11 09:41:19;;;;;;;36.45;21.50;;;;;;;1.06;69.62;100248.34;8599858;33;21776;-71
2021/12/11 09:46:30;;;;;;;33.25;19.75;;;;;;;1.36;67.70;100255.84;8600590;33;20411;-70
2021/12/11 09:51:40;;;;;;;31.35;19.45;;;;;;;1.80;67.31;100270.66;8605351;33;20402;-71
2021/12/11 09:56:47;;;;;;;33.47;20.77;;;;;;;2.19;65.55;100281.16;8604785;33;20426;-72
2021/12/11 10:01:56;;;;;;;35.33;19.42;;;;;;;2.10;65.66;100287.75;8604115;33;20413;-71
2021/12/11 10:12:37;;;;;;;34.80;21.65;;;;;;;2.59;64.78;100303.13;8553709;33;21021;-73
2021/12/11 10:17:46;;;;;;;35.28;20.63;;;;;;;2.61;64.44;100314.53;8607685;33;20624;-72
2021/12/11 10:22:51;;;;;;;36.70;21.58;;;;;;;2.92;64.01;100337.72;8602241;33;20467;-71
2021/12/11 10:27:54;;;;;;;38.58;21.10;;;;;;;2.86;63.91;100331.88;8602593;33;21843;-71
2021/12/11 10:32:59;;;;;;;38.25;21.55;;;;;;;2.54;65.11;100344.91;8606687;33;20420;-71
2021/12/11 10:38:05;;;;;;;39.33;24.02;;;;;;;2.94;64.24;100346.47;8602487;33;20404;-71
2021/12/11 10:43:14;;;;;;;41.03;24.75;;;;;;;2.92;64.60;100348.34;8602051;33;20150;-70
2021/12/11 10:48:24;;;;;;;48.88;25.70;;;;;;;2.92;63.21;100358.09;8606382;33;20257;-71
2021/12/11 10:53:30;;;;;;;55.53;25.77;;;;;;;1.86;67.08;100376.31;8602760;33;20167;-72
2021/12/11 10:58:37;;;;;;;47.45;24.80;;;;;;;2.22;66.47;100376.41;8601273;33;20436;-72
2021/12/11 11:03:47;;;;;;;47.40;25.40;;;;;;;2.21;65.78;100385.31;8594854;33;20420;-71
2021/12/11 11:08:51;;;;;;;46.90;25.33;;;;;;;1.91;66.82;100388.41;8593671;33;20403;-72
2021/12/11 11:13:55;;;;;;;48.75;27.38;;;;;;;2.44;66.55;100386.91;8597197;33;20702;-73
2021/12/11 11:19:00;;;;;;;53.10;27.00;;;;;;;2.61;64.87;100394.94;8571569;33;20144;-71
2021/12/11 11:24:07;;;;;;;50.10;25.92;;;;;;;3.47;62.64;100390.66;8593414;33;20944;-72
2021/12/11 11:29:16;;;;;;;50.22;27.48;;;;;;;4.48;59.60;100399.50;8593835;33;20175;-72
2021/12/11 11:34:31;;;;;;;43.15;24.45;;;;;;;5.01;58.01;100403.63;8591867;33;20429;-72
2021/12/11 11:39:43;;;;;;;47.53;25.73;;;;;;;5.23;56.81;100408.56;8594010;33;20417;-72
2021/12/11 11:44:49;;;;;;;41.75;25.17;;;;;;;4.99;57.31;100417.03;8595359;33;20405;-72
2021/12/11 11:49:58;;;;;;;41.45;24.92;;;;;;;3.43;62.10;100415.69;8601058;33;20185;-72
2021/12/11 11:55:06;;;;;;;44.33;24.80;;;;;;;3.21;61.61;100415.03;8600185;33;20177;-74
2021/12/11 12:00:15;;;;;;;42.72;24.13;;;;;;;2.77;65.21;100412.75;8595920;33;20425;-73
2021/12/11 12:05:21;;;;;;;38.60;22.73;;;;;;;4.45;59.92;100419.16;8601278;33;20397;-73
2021/12/11 12:10:27;;;;;;;36.92;22.30;;;;;;;5.54;58.13;100426.28;8611646;33;20668;-73
2021/12/11 12:15:35;;;;;;;35.03;22.80;;;;;;;5.36;56.33;100435.34;8608626;33;20905;-71
2021/12/11 12:20:41;;;;;;;35.28;22.75;;;;;;;4.62;57.85;100439.50;8603187;33;20183;-70
2021/12/11 12:25:47;;;;;;;38.90;22.85;;;;;;;3.39;60.64;100445.13;8608327;33;20414;-71
2021/12/11 12:30:54;;;;;;;36.47;22.65;;;;;;;3.14;62.81;100442.81;8604339;33;20179;-73
2021/12/11 12:36:00;;;;;;;36.25;23.27;;;;;;;2.01;64.73;100460.41;8604204;33;21528;-71
2021/12/11 12:41:10;;;;;;;40.13;23.02;;;;;;;1.03;69.18;100460.13;8577378;33;20139;-71
2021/12/11 12:46:15;;;;;;;48.20;24.48;;;;;;;0.90;69.76;100466.81;8599201;33;20425;-71
2021/12/11 12:51:21;;;;;;;50.33;25.77;;;;;;;1.19;69.94;100475.38;8610052;33;20418;-71
2021/12/11 12:56:29;;;;;;;55.22;27.80;;;;;;;1.19;69.24;100480.69;8618808;32;20193;-71
2021/12/11 13:01:43;;;;;;;53.13;26.55;;;;;;;0.72;70.59;100483.44;8620714;32;20194;-73
2021/12/11 13:06:55;;;;;;;49.60;27.17;;;;;;;0.48;72.21;100496.66;8624544;32;20577;-71
2021/12/11 13:12:04;;;;;;;49.85;23.48;;;;;;;0.12;72.98;100505.00;8631425;32;20178;-71
2021/12/11 13:17:16;;;;;;;52.88;26.63;;;;;;;0.23;73.86;100509.91;8634467;32;22868;-73
2021/12/11 13:22:27;;;;;;;50.22;27.83;;;;;;;-0.12;74.79;100529.63;8625587;33;20183;-71
2021/12/11 13:27:32;;;;;;;65.70;28.43;;;;;;;-0.42;76.15;100534.16;8616254;32;20388;-71
2021/12/11 13:32:35;;;;;;;67.95;27.85;;;;;;;-0.31;75.77;100540.81;8620743;33;20143;-71
2021/12/11 13:37:40;;;;;;;63.08;27.88;;;;;;;-0.31;75.97;100542.59;8619807;33;20436;-71
2021/12/11 13:42:45;;;;;;;65.90;29.95;;;;;;;-0.35;76.77;100560.31;8632571;32;20479;-73
2021/12/11 13:47:49;;;;;;;58.27;26.70;;;;;;;-0.16;76.23;100563.22;8615165;33;20477;-72
2021/12/11 13:52:54;;;;;;;53.40;25.83;;;;;;;-0.67;77.35;100581.59;8650714;32;20189;-72
2021/12/11 13:57:59;;;;;;;74.77;30.33;;;;;;;-0.69;78.17;100580.78;8653534;33;20175;-72
2021/12/11 14:03:02;;;;;;;44.77;19.83;;;;;;;-0.78;78.92;100608.31;8654116;32;20167;-71
2021/12/11 14:08:10;;;;;;;73.70;31.13;;;;;;;-0.72;78.41;100611.63;8598818;33;20447;-71
2021/12/11 14:13:16;;;;;;;66.90;27.90;;;;;;;-0.44;77.78;100608.09;8598910;33;20143;-72
2021/12/11 14:18:21;;;;;;;59.27;27.83;;;;;;;-0.45;77.36;100616.94;8598924;33;20148;-72
2021/12/11 14:23:31;;;;;;;67.20;31.07;;;;;;;-0.41;77.59;100617.72;8598275;33;21104;-71
2021/12/11 14:28:35;;;;;;;64.17;28.43;;;;;;;-0.40;77.82;100617.69;8600259;33;20415;-70
2021/12/11 14:33:39;;;;;;;64.97;26.37;;;;;;;-0.52;77.77;100634.78;8593940;33;20409;-70
2021/12/11 14:38:46;;;;;;;58.40;26.40;;;;;;;-0.48;77.55;100632.88;8573849;33;20399;-71
2021/12/11 14:43:50;;;;;;;58.50;25.67;;;;;;;-0.57;77.93;100634.03;8597600;33;20476;-72
2021/12/11 14:48:53;;;;;;;55.97;26.80;;;;;;;-0.65;78.54;100637.84;8601309;33;20147;-72
2021/12/11 14:53:59;;;;;;;62.70;24.83;;;;;;;-0.63;78.51;100652.72;8604902;33;20179;-72
2021/12/11 14:59:08;;;;;;;52.00;22.53;;;;;;;-0.69;78.42;100659.94;8603195;33;20497;-71
2021/12/11 15:04:20;;;;;;;65.33;26.00;;;;;;;-0.70;78.66;100663.50;8602289;33;20447;-71
2021/12/11 15:09:25;;;;;;;74.57;27.10;;;;;;;-1.30;79.81;100676.59;8602388;33;20586;-72
2021/12/11 15:14:28;;;;;;;53.80;23.70;;;;;;;-1.41;81.03;100678.66;8602806;33;21890;-71
2021/12/11 15:19:32;;;;;;;61.43;20.20;;;;;;;-1.83;82.80;100701.72;8596263;33;20432;-72
2021/12/11 15:24:37;;;;;;;52.60;20.10;;;;;;;-2.15;84.75;100712.09;8591664;33;20446;-71
2021/12/11 15:29:40;;;;;;;69.67;25.67;;;;;;;-1.74;84.15;100712.88;8567045;33;20167;-71
2021/12/11 15:34:44;;;;;;;76.63;26.03;;;;;;;-1.38;83.49;100718.09;8565979;33;20792;-72
2021/12/11 15:39:53;;;;;;;64.40;22.50;;;;;;;-1.62;84.64;100732.78;8590603;33;20170;-72
2021/12/11 15:44:58;;;;;;;66.50;19.77;;;;;;;-1.51;84.73;100727.22;8567521;33;20248;-71
2021/12/11 15:50:05;;;;;;;74.70;22.03;;;;;;;-1.27;84.91;100725.75;8592091;33;20520;-72
2021/12/11 15:55:16;;;;;;;61.33;20.20;;;;;;;-1.04;84.80;100728.63;8589199;33;20175;-71
2021/12/11 16:00:24;;;;;;;75.97;20.03;;;;;;;-1.00;84.63;100726.75;8589447;33;20453;-70
2021/12/11 16:05:28;;;;;;;60.23;19.70;;;;;;;-0.84;84.52;100749.16;8592758;33;20150;-70
2021/12/11 16:10:34;;;;;;;58.80;22.27;;;;;;;-0.62;85.06;100756.47;8569145;33;20153;-71
2021/12/11 16:15:42;;;;;;;82.23;24.67;;;;;;;-0.51;84.15;100779.00;8570503;33;20646;-71
2021/12/11 16:20:53;;;;;;;87.93;28.93;;;;;;;-0.39;84.27;100783.06;8595632;33;20803;-71
2021/12/11 16:25:57;;;;;;;88.50;29.27;;;;;;;-0.24;83.91;100780.91;8599128;33;20177;-71
2021/12/11 16:31:02;;;;;;;85.87;28.53;;;;;;;-0.16;83.73;100773.59;8571697;33;20886;-71
2021/12/11 16:36:06;;;;;;;73.13;26.77;;;;;;;-0.15;83.24;100778.81;8612318;33;20428;-70
2021/12/11 16:41:37;;;;;;;87.10;31.90;;;;;;;-0.16;83.13;100773.59;8605325;33;20291;-72
2021/12/11 16:46:46;;;;;;;77.60;29.63;;;;;;;-0.08;82.59;100775.09;8594331;33;20213;-70
2021/12/11 16:51:53;;;;;;;68.33;24.77;;;;;;;-0.09;82.54;100765.41;8589770;33;20550;-71
2021/12/11 16:56:59;;;;;;;74.53;25.83;;;;;;;-0.07;81.90;100771.53;8584235;33;21205;-72
2021/12/11 17:02:03;;;;;;;76.10;28.37;;;;;;;-0.06;81.76;100775.03;8592964;33;20518;-71
2021/12/11 17:07:11;;;;;;;77.93;29.70;;;;;;;-0.04;81.87;100790.84;8602612;33;20445;-71
2021/12/11 17:12:20;;;;;;;72.60;27.50;;;;;;;-0.07;81.18;100797.09;8619513;33;20196;-72
2021/12/11 17:17:23;;;;;;;82.32;29.77;;;;;;;-0.09;81.69;100802.41;8607090;33;20179;-70
2021/12/11 17:22:29;;;;;;;77.28;30.65;;;;;;;-0.06;81.41;100806.72;8604320;33;20426;-71
2021/12/11 17:27:35;;;;;;;72.97;28.47;;;;;;;-0.17;81.03;100807.03;8605233;33;20432;-70
2021/12/11 17:32:39;;;;;;;63.43;24.50;;;;;;;-0.23;81.33;100823.06;8607122;33;20285;-72
2021/12/11 17:37:43;;;;;;;70.20;25.77;;;;;;;-0.29;81.28;100813.56;8621520;33;20147;-72
2021/12/11 17:42:48;;;;;;;60.55;23.08;;;;;;;-0.38;81.26;100829.69;8622395;33;20226;-71
2021/12/11 17:47:58;;;;;;;55.07;22.47;;;;;;;-0.40;81.96;100834.13;8621512;33;20930;-71
2021/12/11 17:53:02;;;;;;;61.47;21.45;;;;;;;-0.28;82.21;100833.75;8620143;33;20457;-71
2021/12/11 17:58:06;;;;;;;61.07;22.67;;;;;;;-0.20;82.05;100841.47;8584713;33;20182;-71
2021/12/11 18:03:10;;;;;;;51.80;22.85;;;;;;;-0.22;81.52;100842.41;8607214;33;20538;-71
2021/12/11 18:08:20;;;;;;;53.58;21.38;;;;;;;-0.24;81.32;100842.47;8611055;33;20465;-71
2021/12/11 18:13:30;;;;;;;60.83;24.30;;;;;;;-0.31;81.54;100847.06;8621298;33;20981;-72
2021/12/11 18:18:39;;;;;;;55.17;20.80;;;;;;;-0.39;81.26;100846.41;8622923;33;20175;-71
2021/12/11 18:23:44;;;;;;;51.30;21.13;;;;;;;-0.43;81.08;100849.19;8625139;33;20437;-71
2021/12/11 18:28:52;;;;;;;55.53;22.60;;;;;;;-0.47;81.35;100853.69;8628877;33;20412;-71
2021/12/11 18:33:57;;;;;;;58.53;24.05;;;;;;;-0.50;80.96;100859.91;8628375;33;20526;-71
2021/12/11 18:39:01;;;;;;;56.67;24.17;;;;;;;-0.51;81.39;100865.25;8624904;33;20644;-73
2021/12/11 18:44:06;;;;;;;52.88;23.05;;;;;;;-0.36;81.90;100880.63;8624046;33;20232;-73
2021/12/11 18:49:13;;;;;;;58.50;23.53;;;;;;;-0.17;81.11;100867.78;8594504;33;20444;-71
2021/12/11 18:54:24;;;;;;;59.70;23.98;;;;;;;-0.10;80.53;100865.84;8621618;33;20501;-72
2021/12/11 18:59:34;;;;;;;48.00;22.33;;;;;;;-0.09;80.11;100865.78;8621377;33;20574;-71
2021/12/11 19:04:45;;;;;;;51.17;19.80;;;;;;;-0.05;80.41;100871.88;8593694;33;20139;-72
2021/12/11 19:09:53;;;;;;;48.80;21.23;;;;;;;0.03;80.44;100880.44;8619089;33;20252;-71
2021/12/11 19:15:06;;;;;;;55.15;21.20;;;;;;;-0.18;82.46;100896.88;8617288;33;20223;-71
2021/12/11 19:20:11;;;;;;;55.43;24.63;;;;;;;-0.27;84.44;100911.22;8608280;33;20151;-72
2021/12/11 19:25:17;;;;;;;49.23;19.27;;;;;;;-0.33;84.22;100912.25;8612002;33;20437;-71
2021/12/11 19:30:31;;;;;;;64.00;25.27;;;;;;;-0.20;85.31;100922.47;8574051;33;20452;-70
2021/12/11 19:35:43;;;;;;;62.70;24.87;;;;;;;-0.04;84.51;100923.78;8601999;33;20572;-71
2021/12/11 19:40:52;;;;;;;71.47;24.10;;;;;;;0.21;83.85;100923.06;8599852;33;20398;-71
2021/12/11 19:45:58;;;;;;;62.67;21.85;;;;;;;0.04;84.74;100927.06;8573155;33;20448;-71
2021/12/11 19:51:08;;;;;;;59.47;25.20;;;;;;;-0.03;85.63;100941.34;8598908;33;20429;-71
2021/12/11 19:56:15;;;;;;;55.40;20.13;;;;;;;-0.13;86.18;100953.09;8604205;33;20453;-70
2021/12/11 20:01:24;;;;;;;55.85;23.83;;;;;;;-0.23;86.74;100951.59;8611790;33;20415;-71
2021/12/11 20:06:33;;;;;;;60.83;19.80;;;;;;;0.05;85.94;100964.91;8608473;33;20455;-71
2021/12/11 20:11:42;;;;;;;58.17;26.13;;;;;;;0.26;85.50;100966.06;8615307;33;20143;-72
2021/12/11 20:16:48;;;;;;;64.50;22.20;;;;;;;0.36;85.05;100975.47;8538435;33;20431;-71
2021/12/11 20:21:55;;;;;;;76.25;26.27;;;;;;;0.50;85.18;100972.44;8514888;33;20237;-72
2021/12/11 20:26:59;;;;;;;67.68;25.02;;;;;;;0.50;85.01;100967.13;8542096;33;20156;-72
2021/12/11 20:32:04;;;;;;;58.45;23.08;;;;;;;0.51;84.34;100980.28;8511769;33;20166;-72
2021/12/11 20:37:13;;;;;;;73.90;25.03;;;;;;;0.68;84.00;100971.84;8535211;33;20633;-74
2021/12/11 20:42:22;;;;;;;68.90;25.73;;;;;;;0.75;84.16;100970.75;8535798;33;20152;-72
2021/12/11 20:47:28;;;;;;;65.50;24.10;;;;;;;0.81;83.70;100975.84;8533089;33;20780;-71
2021/12/11 20:52:32;;;;;;;64.32;20.35;;;;;;;0.94;83.58;100964.91;8544079;33;20597;-72
2021/12/11 20:57:35;;;;;;;67.80;24.38;;;;;;;0.93;84.13;100971.09;8542565;33;20182;-72
2021/12/11 21:02:41;;;;;;;65.95;27.42;;;;;;;0.90;84.44;100998.50;8536064;33;21939;-71
2021/12/11 21:07:50;;;;;;;71.78;24.25;;;;;;;0.99;84.54;100995.59;8526073;33;20511;-71
2021/12/11 21:13:01;;;;;;;75.50;24.35;;;;;;;0.99;85.08;100992.09;8527678;33;20433;-72
2021/12/11 21:18:08;;;;;;;79.28;25.80;;;;;;;0.99;85.26;100992.09;8508144;33;20517;-73
2021/12/11 21:23:19;;;;;;;84.72;26.55;;;;;;;0.96;86.26;100997.44;8523833;33;20172;-72
2021/12/11 21:28:29;;;;;;;62.03;20.75;;;;;;;1.01;86.42;100998.16;8550151;33;20611;-72
2021/12/11 21:33:34;;;;;;;84.22;27.88;;;;;;;1.07;86.28;101013.88;8519412;33;20464;-72
2021/12/11 21:38:39;;;;;;;67.07;25.67;;;;;;;1.05;85.32;101005.97;8513506;33;20456;-72
2021/12/11 21:43:45;;;;;;;70.18;26.42;;;;;;;1.19;84.96;101017.91;8521585;33;20450;-71
2021/12/11 21:48:54;;;;;;;69.13;24.55;;;;;;;1.02;85.82;101014.00;8523512;33;20926;-71
2021/12/11 21:54:04;;;;;;;64.85;26.13;;;;;;;1.11;85.40;101028.72;8490540;33;20423;-71
2021/12/11 21:59:13;;;;;;;84.28;26.58;;;;;;;1.16;85.18;101020.66;8517724;33;20417;-72
2021/12/11 22:04:23;;;;;;;78.22;28.20;;;;;;;1.12;85.40;101021.66;8506164;33;20411;-71
2021/12/11 22:09:37;;;;;;;74.28;28.80;;;;;;;1.16;85.71;101028.59;8534649;33;20941;-70
2021/12/11 22:14:42;;;;;;;73.72;26.20;;;;;;;1.14;85.48;101035.69;8539753;33;20152;-72
2021/12/11 22:19:57;;;;;;;73.57;28.67;;;;;;;1.22;85.92;101042.47;8509037;33;20181;-72
2021/12/11 22:25:03;;;;;;;90.95;28.48;;;;;;;1.24;85.48;101042.44;8568094;33;20452;-72
2021/12/11 22:30:13;;;;;;;74.32;26.27;;;;;;;1.27;85.47;101051.16;8572195;33;20423;-72
2021/12/11 22:35:26;;;;;;;73.70;28.85;;;;;;;1.32;85.73;101045.72;8563133;33;20444;-72
2021/12/11 22:40:34;;;;;;;82.45;28.52;;;;;;;1.40;85.17;101051.63;8560298;33;20353;-72
2021/12/11 22:45:45;;;;;;;86.18;29.65;;;;;;;1.32;85.31;101053.66;8561568;33;20467;-71
2021/12/11 22:50:54;;;;;;;78.68;29.02;;;;;;;1.44;85.35;101061.19;8556814;33;20504;-71
2021/12/11 22:55:58;;;;;;;79.90;29.33;;;;;;;1.48;85.00;101064.59;8524116;33;20419;-71
2021/12/11 23:01:11;;;;;;;76.55;27.35;;;;;;;1.48;84.99;101070.78;8560420;33;20728;-72
2021/12/11 23:06:19;;;;;;;83.40;30.27;;;;;;;1.53;84.84;101070.63;8547691;33;21991;-71
2021/12/11 23:11:28;;;;;;;75.90;30.58;;;;;;;1.55;85.02;101058.19;8547833;33;20347;-72
2021/12/11 23:16:36;;;;;;;62.80;25.27;;;;;;;1.56;85.00;101062.56;8573626;33;20408;-72
2021/12/11 23:21:46;;;;;;;68.25;28.48;;;;;;;1.64;84.74;101068.47;8562401;33;20484;-72
2021/12/11 23:26:54;;;;;;;70.30;28.42;;;;;;;1.72;84.66;101060.28;8576561;33;20193;-71
2021/12/11 23:32:03;;;;;;;64.60;29.52;;;;;;;1.66;84.13;101047.25;8616075;33;20454;-71